Flight Track Log - Related Links

Times and Time Zones

All times are in EDT time to prevent confusion due to time zone crossing. See the UPS378 flight status page for this flight to view local times or setup timezone preferences in your user account.


Time Position Orientation Groundspeed Altitude Reporting Facility
EDT Latitude Longitude Course Direction KTS MPH feet Rate Location/Type
Fri 09:45:47 AM 25.8003 -80.2675 207° Southwest 158 182 1,100  Level Miami Center
Fri 09:46:36 AM 25.7869 -80.2211 108° East 203 234 2,000 1,529 Climbing Miami Center
Fri 09:47:29 AM 25.7631 -80.1672 116° Southeast 239 275 3,700 2,239 Climbing Miami Center
Fri 09:47:43 AM 25.7400 -80.1692 184° South 259 298 4,500 2,500 Climbing Miami Center
Fri 09:48:29 AM 25.6914 -80.1883 200° South 270 311 6,200 2,547 Climbing Miami Center
Fri 09:49:29 AM 25.6239 -80.2233 205° Southwest 275 316 9,000 3,171 Climbing Miami Center
Fri 09:49:39 AM 25.6089 -80.2344 214° Southwest 280 322 9,900 2,200 Climbing Miami Center
Fri 09:50:29 AM 25.5478 -80.2606 201° Southwest 304 350 11,200 1,701 Climbing Miami Center
Fri 09:50:46 AM 25.5181 -80.2781 208° Southwest 319 367 11,800 1,700 Climbing Miami Center
Fri 09:51:00 AM 25.2734 -80.4271 207° Southwest  Level FlightAware Approximate
Fri 09:51:29 AM 25.4694 -80.3044 206° Southwest 327 376 12,900  Level Miami Center
Fri 09:52:29 AM 25.3786 -80.3522 205° Southwest 342 394 15,100 2,150 Climbing Miami Center
Fri 09:53:29 AM 25.2894 -80.4094 210° Southwest 358 412 17,200 2,050 Climbing Miami Center
Fri 09:54:29 AM 25.2042 -80.4850 219° Southwest 382 440 19,200 2,000 Climbing Miami Center
Fri 09:55:29 AM 25.1208 -80.5606 219° Southwest 388 447 21,200 1,950 Climbing Miami Center
Fri 09:56:29 AM 25.0331 -80.6383 219° Southwest 401 461 23,100 1,800 Climbing Miami Center
Fri 09:57:29 AM 24.9453 -80.7181 219° Southwest 407 468 24,800 1,600 Climbing Miami Center
Fri 09:58:29 AM 24.8536 -80.7953 217° Southwest 412 474 26,300 1,450 Climbing Miami Center
Fri 09:59:29 AM 24.7617 -80.8747 218° Southwest 417 480 27,700 1,300 Climbing Miami Center
Fri 10:00:29 AM 24.6694 -80.9586 220° Southwest 423 487 28,900 1,300 Climbing Miami Center
Fri 10:01:29 AM 24.5733 -81.0397 218° Southwest 430 495 30,300 1,950 Climbing Miami Center
Fri 10:02:29 AM 24.4811 -81.1189 218° Southwest 430 495 32,800 2,250 Climbing Miami Center
Fri 10:03:29 AM 24.3653 -81.1561 196° South 416 479 34,800 1,600 Climbing Miami Center
Fri 10:04:29 AM 24.2436 -81.1769 189° South 431 496 36,000 1,050 Climbing Miami Center
Fri 10:05:29 AM 24.1197 -81.1975 189° South 436 502 36,900 900 Climbing Miami Center
Fri 10:07:00 AM 23.9474 -81.2234 187° South  Level FlightAware Approximate
Fri 10:14:00 AM 23.1434 -81.3250 187° South  Level FlightAware Approximate
Fri 10:15:00 AM 23.0285 -81.3394 187° South  Level FlightAware Approximate
Fri 10:16:00 AM 22.9137 -81.3538 187° South  Level FlightAware Approximate
Fri 10:17:00 AM 22.7988 -81.3681 187° South  Level FlightAware Approximate
Fri 10:18:00 AM 22.6840 -81.3825 187° South  Level FlightAware Approximate
Fri 10:19:00 AM 22.5691 -81.3968 187° South  Level FlightAware Approximate
Fri 10:20:00 AM 22.4542 -81.4111 187° South  Level FlightAware Approximate
Fri 10:21:00 AM 22.3394 -81.4254 187° South  Level FlightAware Approximate
Fri 10:22:00 AM 22.2245 -81.4396 187° South  Level FlightAware Approximate
Fri 10:23:00 AM 22.1096 -81.4538 187° South  Level FlightAware Approximate
Fri 10:24:00 AM 21.9947 -81.4680 187° South  Level FlightAware Approximate
Fri 10:25:00 AM 21.8799 -81.4822 187° South  Level FlightAware Approximate
Fri 10:26:00 AM 21.7650 -81.4964 187° South  Level FlightAware Approximate
Fri 10:27:00 AM 21.6501 -81.5105 187° South  Level FlightAware Approximate
Fri 10:28:00 AM 21.5430 -81.5506 209° Southwest  Level FlightAware Approximate
Fri 10:29:00 AM 21.4418 -81.6108 209° Southwest  Level FlightAware Approximate
Fri 10:30:00 AM 21.3406 -81.6709 209° Southwest  Level FlightAware Approximate
Fri 10:31:00 AM 21.2394 -81.7309 209° Southwest  Level FlightAware Approximate
Fri 10:32:00 AM 21.1382 -81.7908 209° Southwest  Level FlightAware Approximate
Fri 10:33:00 AM 21.0369 -81.8506 209° Southwest  Level FlightAware Approximate
Fri 10:34:00 AM 20.9357 -81.9104 209° Southwest  Level FlightAware Approximate
Fri 10:35:00 AM 20.8344 -81.9701 209° Southwest  Level FlightAware Approximate
Fri 10:36:00 AM 20.7330 -82.0297 209° Southwest  Level FlightAware Approximate
Fri 10:37:00 AM 20.6317 -82.0892 209° Southwest  Level FlightAware Approximate
Fri 10:38:00 AM 20.5304 -82.1486 209° Southwest  Level FlightAware Approximate
Fri 10:39:00 AM 20.4290 -82.2080 209° Southwest  Level FlightAware Approximate
Fri 10:40:00 AM 20.3276 -82.2673 209° Southwest  Level FlightAware Approximate
Fri 10:41:00 AM 20.2262 -82.3265 209° Southwest  Level FlightAware Approximate
Fri 10:42:00 AM 20.1247 -82.3856 209° Southwest  Level FlightAware Approximate
Fri 10:43:00 AM 20.0178 -82.4248 205° Southwest  Level FlightAware Approximate
Fri 10:44:00 AM 19.9135 -82.4777 205° Southwest  Level FlightAware Approximate
Fri 10:45:00 AM 19.8091 -82.5306 205° Southwest  Level FlightAware Approximate
Fri 10:46:00 AM 19.7047 -82.5833 205° Southwest  Level FlightAware Approximate
Fri 10:47:00 AM 19.6002 -82.6361 205° Southwest  Level FlightAware Approximate
Fri 10:48:00 AM 19.4958 -82.6887 205° Southwest  Level FlightAware Approximate
Fri 10:49:00 AM 19.3913 -82.7413 205° Southwest  Level FlightAware Approximate
Fri 10:50:00 AM 19.2869 -82.7938 205° Southwest  Level FlightAware Approximate
Fri 10:51:00 AM 19.1824 -82.8462 205° Southwest  Level FlightAware Approximate
Fri 10:52:00 AM 19.0779 -82.8986 205° Southwest  Level FlightAware Approximate
Fri 10:53:00 AM 18.9734 -82.9509 205° Southwest  Level FlightAware Approximate
Fri 10:54:00 AM 18.8688 -83.0032 205° Southwest  Level FlightAware Approximate
Fri 10:55:00 AM 18.7643 -83.0554 205° Southwest  Level FlightAware Approximate
Fri 10:56:00 AM 18.6597 -83.1075 205° Southwest  Level FlightAware Approximate
Fri 10:57:00 AM 18.5552 -83.1595 205° Southwest  Level FlightAware Approximate
Fri 10:58:00 AM 18.4506 -83.2115 205° Southwest  Level FlightAware Approximate
Fri 10:59:00 AM 18.3460 -83.2634 205° Southwest  Level FlightAware Approximate
Fri 11:00:00 AM 18.2414 -83.3153 205° Southwest  Level FlightAware Approximate
Fri 11:01:00 AM 18.1367 -83.3671 205° Southwest  Level FlightAware Approximate
Fri 11:02:00 AM 18.0321 -83.4188 205° Southwest  Level FlightAware Approximate
Fri 11:03:00 AM 17.9274 -83.4705 205° Southwest  Level FlightAware Approximate
Fri 11:04:00 AM 17.8228 -83.5221 205° Southwest  Level FlightAware Approximate
Fri 11:05:00 AM 17.7179 -83.5732 205° Southwest  Level FlightAware Approximate
Fri 11:06:00 AM 17.6129 -83.6241 205° Southwest  Level FlightAware Approximate
Fri 11:07:00 AM 17.5079 -83.6749 205° Southwest  Level FlightAware Approximate
Fri 11:08:00 AM 17.4029 -83.7256 205° Southwest  Level FlightAware Approximate
Fri 11:09:00 AM 17.2979 -83.7764 205° Southwest  Level FlightAware Approximate
Fri 11:10:00 AM 17.1929 -83.8270 205° Southwest  Level FlightAware Approximate
Fri 11:11:00 AM 17.0878 -83.8776 205° Southwest  Level FlightAware Approximate
Fri 11:12:00 AM 16.9828 -83.9281 205° Southwest  Level FlightAware Approximate
Fri 11:13:00 AM 16.8777 -83.9786 205° Southwest  Level FlightAware Approximate
Fri 11:14:00 AM 16.7727 -84.0290 205° Southwest  Level FlightAware Approximate
Fri 11:15:00 AM 16.6676 -84.0794 205° Southwest  Level FlightAware Approximate
Fri 11:16:00 AM 16.5625 -84.1297 205° Southwest  Level FlightAware Approximate
Fri 11:17:00 AM 16.4574 -84.1799 205° Southwest  Level FlightAware Approximate
Fri 11:18:00 AM 16.3522 -84.2301 205° Southwest  Level FlightAware Approximate
Fri 11:19:00 AM 16.2471 -84.2803 205° Southwest  Level FlightAware Approximate
Fri 11:20:00 AM 16.1420 -84.3303 205° Southwest  Level FlightAware Approximate
Fri 11:21:00 AM 16.0368 -84.3804 205° Southwest  Level FlightAware Approximate
Fri 11:22:00 AM 15.9317 -84.4304 205° Southwest  Level FlightAware Approximate
Fri 11:23:00 AM 15.8265 -84.4803 205° Southwest  Level FlightAware Approximate
Fri 11:24:00 AM 15.7213 -84.5302 205° Southwest  Level FlightAware Approximate
Fri 11:25:00 AM 15.6161 -84.5800 205° Southwest  Level FlightAware Approximate
Fri 11:26:00 AM 15.5109 -84.6298 205° Southwest  Level FlightAware Approximate
Fri 11:27:00 AM 15.4056 -84.6795 204° Southwest  Level FlightAware Approximate
Fri 11:28:00 AM 15.3004 -84.7292 204° Southwest  Level FlightAware Approximate
Fri 11:29:00 AM 15.1952 -84.7788 204° Southwest  Level FlightAware Approximate
Fri 11:30:00 AM 15.0899 -84.8284 204° Southwest  Level FlightAware Approximate
Fri 11:31:00 AM 14.9846 -84.8779 204° Southwest  Level FlightAware Approximate
Fri 11:32:00 AM 14.8793 -84.9274 204° Southwest  Level FlightAware Approximate
Fri 11:33:00 AM 14.7738 -84.9761 204° Southwest  Level FlightAware Approximate
Fri 11:34:00 AM 14.6681 -85.0247 204° Southwest  Level FlightAware Approximate
Fri 11:35:00 AM 14.5625 -85.0733 204° Southwest  Level FlightAware Approximate
Fri 11:36:00 AM 14.4568 -85.1218 204° Southwest  Level FlightAware Approximate
Fri 11:37:00 AM 14.3512 -85.1703 204° Southwest  Level FlightAware Approximate
Fri 11:38:00 AM 14.2456 -85.2189 206° Southwest  Level FlightAware Approximate
Fri 11:39:00 AM 14.1415 -85.2709 206° Southwest  Level FlightAware Approximate
Fri 11:40:00 AM 14.0375 -85.3229 206° Southwest  Level FlightAware Approximate
Fri 11:41:00 AM 13.9335 -85.3749 206° Southwest  Level FlightAware Approximate
Fri 11:42:00 AM 13.8326 -85.4326 204° Southwest  Level FlightAware Approximate
Fri 11:43:00 AM 13.7273 -85.4817 204° Southwest  Level FlightAware Approximate
Fri 11:44:00 AM 13.6220 -85.5309 204° Southwest  Level FlightAware Approximate
Fri 11:45:00 AM 13.5156 -85.5776 203° Southwest  Level FlightAware Approximate
Fri 11:46:00 AM 13.4093 -85.6241 203° Southwest  Level FlightAware Approximate
Fri 11:47:00 AM 13.3030 -85.6709 203° Southwest  Level FlightAware Approximate
Fri 11:48:00 AM 13.1969 -85.7181 203° Southwest  Level FlightAware Approximate
Fri 11:49:00 AM 13.0907 -85.7652 203° Southwest  Level FlightAware Approximate
Fri 11:50:00 AM 12.9836 -85.8099 201° Southwest  Level FlightAware Approximate
Fri 11:51:00 AM 12.8760 -85.8532 203° Southwest  Level FlightAware Approximate
Fri 11:52:00 AM 12.7699 -85.9004 203° Southwest  Level FlightAware Approximate
Fri 11:53:00 AM 12.6632 -85.9459 202° Southwest  Level FlightAware Approximate
Fri 11:54:00 AM 12.5561 -85.9905 202° Southwest  Level FlightAware Approximate
Fri 11:55:00 AM 12.4485 -86.0340 201° Southwest  Level FlightAware Approximate
Fri 11:56:00 AM 12.3417 -86.0791 206° Southwest  Level FlightAware Approximate
Fri 11:57:00 AM 12.2355 -86.1258 201° Southwest  Level FlightAware Approximate
Fri 11:58:00 AM 12.1500 -86.1500 194° South  Level FlightAware Approximate
Fri 11:59:00 AM 12.1415 -86.1682 194° South  Level Estimated
Fri 12:00:00 PM 12.1415 -86.1682 194° South  Level Estimated
Fri 12:01:00 PM 12.1415 -86.1682 194° South  Level Estimated
Fri 12:02:00 PM 12.1415 -86.1682 194° South  Level Estimated
Fri 12:03:00 PM 12.1415 -86.1682 194° South  Level Estimated
Fri 12:04:00 PM 12.1415 -86.1682 194° South  Level Estimated
Fri 12:05:00 PM 12.1415 -86.1682 194° South  Level Estimated
Fri 12:06:00 PM 12.1415 -86.1682 194° South  Level Estimated
Fri 12:07:00 PM 12.1415 -86.1682 194° South  Level Estimated
Fri 12:08:00 PM 12.1415 -86.1682 194° South  Level Estimated
Fri 12:09:00 PM 12.1415 -86.1682 194° South  Level Estimated
Fri 12:10:00 PM 12.1415 -86.1682 194° South  Level Estimated
Fri 12:11:00 PM 12.1415 -86.1682 194° South  Level Estimated

Login

Don't have an account? Register now (free) for customized features, flight alerts, and more!